Main page
Satellite images 10-day forecastsClimateMarine weather Cyclones Lightning AirportsFAQ Newsletter About
Weather : Europe Africa North America South America Asia Australia-Oceania Others
Languages Contact

Christchurch, New Zealand

latitude: 43-29S, longitude: 172-33E, elevation: 38 m


METAR: NZCH 311700Z AUTO 05009KT 9999 OVC007/// 18/17 Q1008 NOSIG
TAF: NZCH 311701Z 3118/0118 06012KT CAVOK TEMPO 3118/3120 BKN006 BECMG 0109/0111 32005KT

Time: 06:36 (17:36 UTC)

Current weather observation

The report was made 36 minutes ago, at 17:00 UTC
Wind 9 kt from the Northeast
Temperature 18°C
Humidity 94%
Pressure 1008 hPa
Visibility 10 km or more

Change units

Forecast

The report was made 35 minutes ago, at 17:01 UTC
Forecast valid from 31 at 18 UTC to 01 at 18 UTC
Wind 12 kt from the East/Northeast
Visibility 10 km or more
no clouds below 1500 m and no cumulonimbus
Temporary
from 31 at 18 UTC to 31 at 20 UTC
Broken clouds at a height of 600 ft
Becoming
from 01 at 09 UTC to 01 at 11 UTC
Wind 5 kt from the Northwest
The information on this site is subject to a disclaimer
Weather : Europe Africa North America South America Asia Australia-Oceania Others
Satellite images 10-day forecastsClimateMarine weather Cyclones Lightning AirportsFAQ Languages Contact Newsletter About